createdAt,value
2023-01-18T00:02:58.037Z,99.49
2023-01-18T00:06:02.378Z,99.50
2023-01-18T00:09:05.147Z,98.94
2023-01-18T00:12:07.878Z,99.19
2023-01-18T00:15:11.287Z,98.32
2023-01-18T00:18:14.160Z,98.43
2023-01-18T00:21:16.955Z,98.46
2023-01-18T00:24:22.918Z,99.22
2023-01-18T00:27:25.807Z,99.32
2023-01-18T00:30:29.954Z,99.56
2023-01-18T00:33:32.664Z,99.30
2023-01-18T00:36:35.660Z,99.04
2023-01-18T00:39:38.595Z,98.79
2023-01-18T00:43:01.043Z,98.09
2023-01-18T00:46:05.827Z,98.16
2023-01-18T00:49:08.720Z,98.23
2023-01-18T00:52:11.485Z,97.59
2023-01-18T00:55:16.271Z,97.96
2023-01-18T00:58:19.562Z,97.95
2023-01-18T01:01:22.490Z,97.88
2023-01-18T01:04:43.813Z,97.95
2023-01-18T01:07:49.524Z,98.59
2023-01-18T01:11:10.690Z,98.82
2023-01-18T01:14:31.956Z,99.38
2023-01-18T01:17:55.191Z,99.31
2023-01-18T01:21:16.387Z,99.35
2023-01-18T01:24:37.755Z,98.77
2023-01-18T01:27:40.610Z,98.83
2023-01-18T01:30:44.758Z,99.01
2023-01-18T01:33:50.913Z,98.20
2023-01-18T01:36:53.651Z,98.75
2023-01-18T01:39:56.757Z,98.06
2023-01-18T01:42:59.823Z,97.99
2023-01-18T01:46:04.102Z,98.08
2023-01-18T01:49:12.873Z,98.20
2023-01-18T01:52:28.220Z,98.34
2023-01-18T01:55:37.913Z,98.98
2023-01-18T01:58:41.889Z,99.63
2023-01-18T02:01:46.333Z,99.47
2023-01-18T02:04:53.832Z,100.00
2023-01-18T02:08:00.937Z,100.00
2023-01-18T02:11:03.835Z,100.00
2023-01-18T02:14:15.925Z,100.00
2023-01-18T02:17:56.214Z,100.00
2023-01-18T02:21:19.768Z,100.00
2023-01-18T02:24:46.500Z,100.00
2023-01-18T02:28:06.301Z,100.00
2023-01-18T02:31:21.503Z,100.00
2023-01-18T02:34:39.387Z,100.00
2023-01-18T02:37:54.296Z,100.00
2023-01-18T02:41:05.849Z,100.00
2023-01-18T02:44:27.123Z,100.00
2023-01-18T02:47:30.836Z,100.00
2023-01-18T02:50:34.108Z,100.00
2023-01-18T02:53:46.389Z,100.00
2023-01-18T02:56:56.817Z,100.00
2023-01-18T03:00:02.963Z,100.00
2023-01-18T03:03:11.044Z,100.00
2023-01-18T03:06:14.442Z,100.00
2023-01-18T03:09:21.739Z,100.00
2023-01-18T03:13:00.215Z,100.00
2023-01-18T03:16:21.225Z,100.00
2023-01-18T03:20:04.145Z,100.00
2023-01-18T03:23:38.887Z,100.00
2023-01-18T03:26:47.235Z,100.00
2023-01-18T03:30:08.722Z,100.00
2023-01-18T03:33:31.458Z,100.00
2023-01-18T03:36:40.277Z,100.00
2023-01-18T03:39:46.798Z,100.00
2023-01-18T03:43:07.854Z,100.00
2023-01-18T03:46:12.632Z,100.00
2023-01-18T03:49:16.725Z,100.00
2023-01-18T03:52:31.932Z,100.00
2023-01-18T03:55:44.014Z,100.00
2023-01-18T03:58:49.516Z,100.00
2023-01-18T04:01:53.024Z,100.00
2023-01-18T04:04:57.805Z,100.00
2023-01-18T04:08:00.718Z,100.00
2023-01-18T04:11:03.563Z,100.00
2023-01-18T04:14:06.416Z,100.00
2023-01-18T04:17:09.211Z,100.00
2023-01-18T04:20:12.398Z,100.00
2023-01-18T04:23:15.672Z,100.00
2023-01-18T04:26:19.421Z,100.00
2023-01-18T04:29:23.342Z,100.00
2023-01-18T04:32:26.185Z,100.00
2023-01-18T04:35:28.987Z,100.00
2023-01-18T04:38:31.908Z,100.00
2023-01-18T04:41:35.066Z,100.00
2023-01-18T04:44:38.220Z,95.61
2023-01-18T04:47:41.075Z,94.96
2023-01-18T04:50:46.660Z,95.96
2023-01-18T04:53:49.660Z,95.66
2023-01-18T04:56:52.676Z,95.73
2023-01-18T04:59:55.531Z,95.48
2023-01-18T05:02:58.532Z,95.28
2023-01-18T05:06:01.521Z,95.24
2023-01-18T05:09:04.418Z,96.31
2023-01-18T05:12:07.392Z,95.94
2023-01-18T05:15:10.653Z,96.54
2023-01-18T05:18:13.398Z,96.76
2023-01-18T05:21:16.218Z,96.33
2023-01-18T05:24:18.950Z,96.32
2023-01-18T05:27:21.772Z,96.12
2023-01-18T05:30:24.644Z,96.50
2023-01-18T05:33:27.589Z,96.89
2023-01-18T05:36:30.503Z,96.81
2023-01-18T05:39:33.639Z,96.84
2023-01-18T05:42:36.586Z,97.29
2023-01-18T05:45:39.896Z,97.35
2023-01-18T05:48:42.880Z,96.97
2023-01-18T05:51:45.652Z,96.57
2023-01-18T05:54:48.508Z,96.33
2023-01-18T05:57:51.307Z,96.87
2023-01-18T06:00:54.603Z,97.51
2023-01-18T06:03:57.559Z,97.59
2023-01-18T06:07:00.471Z,97.26
2023-01-18T06:10:03.755Z,97.69
2023-01-18T06:13:06.980Z,97.24
2023-01-18T06:16:12.125Z,97.79
2023-01-18T06:19:14.932Z,97.17
2023-01-18T06:22:17.798Z,98.22
2023-01-18T06:25:20.608Z,97.73
2023-01-18T06:28:23.472Z,98.37
2023-01-18T06:31:26.348Z,98.29
2023-01-18T06:34:30.441Z,98.78
2023-01-18T06:37:33.733Z,98.89
2023-01-18T06:40:37.172Z,98.70
2023-01-18T06:43:40.064Z,97.38
2023-01-18T06:46:46.108Z,97.27
2023-01-18T06:49:49.057Z,96.07
2023-01-18T06:52:52.271Z,97.64
2023-01-18T06:55:58.808Z,98.12
2023-01-18T06:59:04.045Z,97.76
2023-01-18T07:02:07.951Z,98.04
2023-01-18T07:05:11.339Z,98.18
2023-01-18T07:08:14.634Z,98.37
2023-01-18T07:11:18.905Z,97.37
2023-01-18T07:14:21.939Z,97.45
2023-01-18T07:17:24.766Z,97.43
2023-01-18T07:20:29.799Z,96.85
2023-01-18T07:23:35.564Z,96.93
2023-01-18T07:26:41.266Z,96.05
2023-01-18T07:29:44.291Z,95.94
2023-01-18T07:32:49.645Z,94.73
2023-01-18T07:35:54.287Z,92.98
2023-01-18T07:38:57.611Z,90.44
2023-01-18T07:42:02.002Z,89.29
2023-01-18T07:45:08.881Z,86.70
2023-01-18T07:48:11.779Z,84.77
2023-01-18T07:51:15.840Z,75.28
2023-01-18T07:54:19.321Z,74.79
2023-01-18T07:57:22.232Z,75.79
2023-01-18T08:00:26.046Z,78.40
2023-01-18T08:03:32.843Z,81.49
2023-01-18T08:06:39.676Z,70.97
2023-01-18T08:09:47.742Z,60.98
2023-01-18T08:12:52.114Z,55.27
2023-01-18T08:15:56.918Z,51.72
2023-01-18T08:19:00.331Z,48.19
2023-01-18T08:22:03.720Z,44.99
2023-01-18T08:25:07.174Z,43.29
2023-01-18T08:28:11.268Z,41.90
2023-01-18T08:31:18.836Z,42.35
2023-01-18T08:34:31.870Z,41.88
2023-01-18T08:37:36.421Z,43.48
2023-01-18T08:40:41.059Z,39.52
2023-01-18T08:43:44.403Z,38.87
2023-01-18T08:46:50.078Z,38.69
2023-01-18T08:49:53.141Z,39.19
2023-01-18T08:52:57.410Z,39.53
2023-01-18T08:56:04.700Z,39.30
2023-01-18T08:59:08.810Z,38.32
2023-01-18T09:02:12.466Z,36.92
2023-01-18T09:05:15.858Z,38.18
2023-01-18T09:08:19.039Z,40.97
2023-01-18T09:11:25.013Z,38.70
2023-01-18T09:14:27.822Z,39.68
2023-01-18T09:17:31.136Z,45.29
2023-01-18T09:20:36.690Z,39.57
2023-01-18T09:23:40.807Z,46.95
2023-01-18T09:26:45.211Z,50.45
2023-01-18T09:29:52.508Z,49.61
2023-01-18T09:32:57.745Z,43.85
2023-01-18T09:36:07.852Z,38.08
2023-01-18T09:39:10.696Z,36.38
2023-01-18T09:42:28.790Z,35.23
2023-01-18T09:45:35.148Z,35.78
2023-01-18T09:48:43.050Z,35.14
2023-01-18T09:52:06.070Z,33.39
2023-01-18T09:55:15.194Z,33.44
2023-01-18T09:58:39.532Z,32.35
2023-01-18T10:01:42.970Z,35.72
2023-01-18T10:04:53.121Z,40.45
2023-01-18T10:08:25.587Z,34.43
2023-01-18T10:11:45.155Z,33.00
2023-01-18T10:14:57.868Z,33.80
2023-01-18T10:18:01.551Z,32.65
2023-01-18T10:21:07.662Z,30.72
2023-01-18T10:24:42.919Z,30.58
2023-01-18T10:28:25.435Z,31.53
2023-01-18T10:31:53.257Z,33.07
2023-01-18T10:34:57.995Z,31.01
2023-01-18T10:38:12.356Z,32.86
2023-01-18T10:41:29.502Z,31.13
2023-01-18T10:44:32.987Z,31.45
2023-01-18T10:47:35.876Z,29.79
2023-01-18T10:50:53.248Z,29.49
2023-01-18T10:54:00.099Z,29.80
2023-01-18T10:57:04.769Z,29.56
2023-01-18T11:00:22.603Z,32.93
2023-01-18T11:03:28.631Z,30.21
2023-01-18T11:06:53.735Z,29.64
2023-01-18T11:10:01.708Z,29.82
2023-01-18T11:13:24.698Z,30.07
2023-01-18T11:16:29.276Z,30.06
2023-01-18T11:19:34.115Z,30.01
2023-01-18T11:23:02.474Z,31.30
2023-01-18T11:26:15.239Z,30.65
2023-01-18T11:29:19.019Z,31.75
2023-01-18T11:32:26.981Z,34.71
2023-01-18T11:35:34.469Z,31.44
2023-01-18T11:38:37.390Z,30.78
2023-01-18T11:41:40.365Z,29.18
2023-01-18T11:45:07.817Z,29.52
2023-01-18T11:48:26.473Z,28.55
2023-01-18T11:51:39.241Z,27.89
2023-01-18T11:54:52.879Z,26.87
2023-01-18T11:57:55.959Z,27.94
2023-01-18T12:01:07.435Z,28.20
2023-01-18T12:04:55.106Z,26.55
2023-01-18T12:08:24.600Z,25.54
2023-01-18T12:11:46.200Z,27.09
2023-01-18T12:15:18.603Z,26.49
2023-01-18T12:18:24.767Z,26.60
2023-01-18T12:22:00.305Z,27.36
2023-01-18T12:25:16.367Z,27.41
2023-01-18T12:28:28.374Z,26.86
2023-01-18T12:31:58.931Z,28.15
2023-01-18T12:35:35.801Z,30.76
2023-01-18T12:38:49.464Z,31.54
2023-01-18T12:42:10.176Z,32.41
2023-01-18T12:45:20.685Z,31.24
2023-01-18T12:48:54.850Z,31.77
2023-01-18T12:52:17.724Z,36.50
2023-01-18T12:55:25.800Z,37.76
2023-01-18T12:58:28.802Z,38.70
2023-01-18T13:01:53.561Z,41.86
2023-01-18T13:05:05.288Z,45.03
2023-01-18T13:08:27.962Z,45.20
2023-01-18T13:11:35.719Z,47.34
2023-01-18T13:14:38.612Z,51.34
2023-01-18T13:17:56.982Z,51.77
2023-01-18T13:21:19.289Z,53.25
2023-01-18T13:24:28.121Z,54.37
2023-01-18T13:27:31.726Z,55.35
2023-01-18T13:30:57.252Z,55.33
2023-01-18T13:34:00.655Z,55.32
2023-01-18T13:37:14.837Z,53.75
2023-01-18T13:40:35.267Z,54.49
2023-01-18T13:43:37.975Z,54.82
2023-01-18T13:46:42.626Z,54.68
2023-01-18T13:49:46.792Z,56.17
2023-01-18T13:53:15.466Z,58.21
2023-01-18T13:56:23.833Z,57.16
2023-01-18T13:59:31.938Z,56.71
2023-01-18T14:02:44.240Z,56.94
2023-01-18T14:05:49.145Z,57.00
2023-01-18T14:08:55.587Z,57.07
2023-01-18T14:11:59.530Z,58.07
2023-01-18T14:15:02.752Z,59.66
2023-01-18T14:18:24.837Z,61.78
2023-01-18T14:22:06.318Z,62.54
2023-01-18T14:25:27.304Z,64.30
2023-01-18T14:28:48.225Z,64.36
2023-01-18T14:31:56.129Z,65.90
2023-01-18T14:35:03.129Z,66.40
2023-01-18T14:38:18.881Z,67.41
2023-01-18T14:41:21.991Z,66.94
2023-01-18T14:44:31.307Z,66.91
2023-01-18T14:47:35.014Z,67.03
2023-01-18T14:50:41.930Z,66.99
2023-01-18T14:53:48.502Z,67.82
2023-01-18T14:57:00.039Z,67.08
2023-01-18T15:00:17.261Z,68.11
2023-01-18T15:03:28.975Z,68.77
2023-01-18T15:06:34.746Z,68.52
2023-01-18T15:09:39.884Z,68.31
2023-01-18T15:12:48.597Z,69.79
2023-01-18T15:15:51.566Z,70.20
2023-01-18T15:18:56.109Z,69.97
2023-01-18T15:22:01.944Z,69.52
2023-01-18T15:25:14.653Z,69.58
2023-01-18T15:28:23.916Z,70.20
2023-01-18T15:31:27.900Z,70.36
2023-01-18T15:34:36.880Z,70.81
2023-01-18T15:37:39.900Z,71.26
2023-01-18T15:40:54.303Z,71.51
2023-01-18T15:43:58.473Z,72.37
2023-01-18T15:47:02.459Z,73.31
2023-01-18T15:50:18.711Z,75.22
2023-01-18T15:53:35.485Z,74.91
2023-01-18T15:56:38.590Z,75.57
2023-01-18T15:59:42.864Z,76.40
2023-01-18T16:02:46.147Z,76.60
2023-01-18T16:06:11.451Z,76.82
2023-01-18T16:09:16.120Z,77.49
2023-01-18T16:12:34.940Z,77.29
2023-01-18T16:15:38.300Z,78.00
2023-01-18T16:18:48.756Z,78.14
2023-01-18T16:22:00.136Z,77.98
2023-01-18T16:25:21.289Z,77.99
2023-01-18T16:28:25.002Z,77.93
2023-01-18T16:31:29.108Z,78.75
2023-01-18T16:34:32.173Z,78.63
2023-01-18T16:37:35.364Z,79.61
2023-01-18T16:40:40.197Z,80.23
2023-01-18T16:43:44.180Z,81.20
2023-01-18T16:46:48.434Z,81.36
2023-01-18T16:49:51.499Z,81.35
2023-01-18T16:52:54.661Z,82.11
2023-01-18T16:55:57.622Z,81.76
2023-01-18T16:59:20.747Z,81.76
2023-01-18T17:02:32.562Z,81.34
2023-01-18T17:07:15.041Z,81.19
2023-01-18T17:10:43.468Z,81.56
2023-01-18T17:13:47.919Z,82.12
2023-01-18T17:16:51.093Z,82.28
2023-01-18T17:19:54.603Z,81.78
2023-01-18T17:22:57.795Z,82.25
2023-01-18T17:26:00.990Z,82.01
2023-01-18T17:29:05.295Z,80.76
2023-01-18T17:32:10.415Z,80.88
2023-01-18T17:35:15.559Z,80.38
2023-01-18T17:38:25.081Z,79.95
2023-01-18T17:41:29.747Z,78.85
2023-01-18T17:44:37.429Z,77.34
2023-01-18T17:47:42.678Z,77.39
2023-01-18T17:50:45.672Z,77.80
2023-01-18T17:53:49.044Z,77.10
2023-01-18T17:56:53.307Z,77.73
2023-01-18T17:59:56.752Z,77.52
2023-01-18T18:03:01.217Z,77.73
2023-01-18T18:06:05.893Z,77.84
2023-01-18T18:09:08.970Z,77.97
2023-01-18T18:12:13.097Z,78.80
2023-01-18T18:18:36.867Z,79.76
2023-01-18T18:21:40.005Z,80.81
2023-01-18T18:24:43.071Z,81.14
2023-01-18T18:27:47.296Z,81.83
2023-01-18T18:30:51.681Z,82.48
2023-01-18T18:33:54.639Z,83.49
2023-01-18T18:36:57.726Z,84.49
2023-01-18T18:43:21.662Z,85.66
2023-01-18T18:49:46.718Z,87.44
2023-01-18T18:52:49.816Z,88.40
2023-01-18T18:55:58.923Z,89.10
2023-01-18T18:59:02.425Z,90.07
2023-01-18T19:02:05.850Z,90.95
2023-01-18T19:05:10.821Z,91.62
2023-01-18T19:08:13.737Z,91.36
2023-01-18T19:11:17.767Z,91.41
2023-01-18T19:14:20.829Z,92.06
2023-01-18T19:17:30.208Z,92.05
2023-01-18T19:20:33.606Z,92.26
2023-01-18T19:23:36.927Z,91.83
2023-01-18T19:26:40.483Z,91.96
2023-01-18T19:29:43.707Z,91.89
2023-01-18T19:32:48.544Z,92.13
2023-01-18T19:35:51.500Z,93.05
2023-01-18T19:38:59.766Z,93.85
2023-01-18T19:42:03.422Z,93.69
2023-01-18T19:45:08.225Z,94.08
2023-01-18T19:48:12.706Z,94.46
2023-01-18T19:51:22.655Z,94.59
2023-01-18T19:54:26.488Z,94.89
2023-01-18T19:57:29.889Z,94.97
2023-01-18T20:00:34.289Z,94.86
2023-01-18T20:03:37.737Z,95.14
2023-01-18T20:06:43.616Z,95.09
2023-01-18T20:09:47.530Z,95.41
2023-01-18T20:12:50.657Z,95.51
2023-01-18T20:15:54.717Z,96.33
2023-01-18T20:18:58.200Z,95.79
2023-01-18T20:22:01.296Z,95.94
2023-01-18T20:25:04.613Z,95.59
2023-01-18T20:28:10.102Z,96.48
2023-01-18T20:31:13.961Z,96.16
2023-01-18T20:34:17.093Z,96.20
2023-01-18T20:37:20.565Z,96.11
2023-01-18T20:40:24.998Z,96.18
2023-01-18T20:43:27.959Z,96.81
2023-01-18T20:46:30.873Z,96.93
2023-01-18T20:49:38.282Z,96.54
2023-01-18T20:52:42.267Z,96.94
2023-01-18T20:55:45.619Z,95.78
2023-01-18T20:58:49.031Z,96.15
2023-01-18T21:01:53.193Z,95.93
2023-01-18T21:04:56.670Z,96.81
2023-01-18T21:08:00.051Z,96.93
2023-01-18T21:11:03.280Z,97.33
2023-01-18T21:14:06.432Z,97.09
2023-01-18T21:17:09.528Z,97.18
2023-01-18T21:20:12.800Z,98.15
2023-01-18T21:23:16.834Z,98.84
2023-01-18T21:26:20.012Z,99.12
2023-01-18T21:29:23.176Z,99.75
2023-01-18T21:32:26.120Z,99.10
2023-01-18T21:35:30.031Z,99.37
2023-01-18T21:38:33.128Z,99.66
2023-01-18T21:41:54.508Z,99.26
2023-01-18T21:45:15.685Z,99.34
2023-01-18T21:48:18.860Z,99.69
2023-01-18T21:51:40.229Z,99.43
2023-01-18T21:54:43.176Z,99.70
2023-01-18T21:58:05.951Z,99.76
2023-01-18T22:01:17.939Z,100.00
2023-01-18T22:04:39.383Z,100.00
2023-01-18T22:07:42.871Z,100.00
2023-01-18T22:10:47.588Z,100.00
2023-01-18T22:13:50.488Z,99.86
2023-01-18T22:16:53.891Z,99.63
2023-01-18T22:19:57.089Z,100.00
2023-01-18T22:23:06.233Z,100.00
2023-01-18T22:26:09.008Z,100.00
2023-01-18T22:29:12.666Z,100.00
2023-01-18T22:32:16.504Z,100.00
2023-01-18T22:35:19.369Z,100.00
2023-01-18T22:38:22.206Z,100.00
2023-01-18T22:41:28.656Z,100.00
2023-01-18T22:44:32.939Z,100.00
2023-01-18T22:47:35.785Z,100.00
2023-01-18T22:50:38.612Z,100.00
2023-01-18T22:53:41.506Z,100.00
2023-01-18T22:56:44.288Z,100.00
2023-01-18T22:59:48.152Z,100.00
2023-01-18T23:02:52.007Z,100.00
2023-01-18T23:05:59.708Z,100.00
2023-01-18T23:09:02.757Z,100.00
2023-01-18T23:12:05.836Z,100.00
2023-01-18T23:15:29.265Z,100.00
2023-01-18T23:18:32.436Z,100.00
2023-01-18T23:21:35.267Z,100.00
2023-01-18T23:24:38.867Z,100.00
2023-01-18T23:27:41.757Z,100.00
2023-01-18T23:30:44.778Z,100.00
2023-01-18T23:33:47.649Z,99.77
2023-01-18T23:36:51.338Z,99.67
2023-01-18T23:40:12.653Z,100.00
2023-01-18T23:43:34.036Z,99.76
2023-01-18T23:46:55.299Z,100.00
2023-01-18T23:50:17.393Z,98.88
2023-01-18T23:53:38.703Z,98.51
2023-01-18T23:56:41.871Z,98.56
2023-01-18T23:59:44.700Z,98.89
